Time;durP1;ratioP1;P1;durP2;ratioP2;P2;SDS_P1;SDS_P2;PMS_P1;PMS_P2;Temp;Humidity;BMP_temperature;BMP_pressure;BME280_temperature;BME280_humidity;BME280_pressure;Samples;Min_cycle;Max_cycle;Signal;HPM_P1;HPM_P2
2024/01/16 00:02:24;;;;;;;7.20;3.70;;;;;;;;;;5020374;28;20798;-68
2024/01/16 00:04:51;;;;;;;8.80;4.23;;;;;;;;;;5020654;28;20224;-68
2024/01/16 00:07:18;;;;;;;12.63;4.57;;;;;;;;;;5022183;28;20222;-67
2024/01/16 00:09:47;;;;;;;12.13;4.20;;;;;;;;;;5017879;28;20223;-67
2024/01/16 00:12:14;;;;;;;7.13;4.30;;;;;;;;;;5021303;28;20222;-68
2024/01/16 00:14:41;;;;;;;6.27;3.80;;;;;;;;;;5020885;28;20216;-66
2024/01/16 00:17:08;;;;;;;5.70;3.93;;;;;;;;;;5021962;28;20204;-67
2024/01/16 00:19:35;;;;;;;7.50;4.00;;;;;;;;;;5027477;28;20215;-67
2024/01/16 00:22:04;;;;;;;5.93;4.00;;;;;;;;;;5025420;28;20208;-68
2024/01/16 00:24:31;;;;;;;8.87;4.17;;;;;;;;;;5026877;28;20250;-68
2024/01/16 00:27:00;;;;;;;10.47;4.10;;;;;;;;;;5027107;28;20200;-68
2024/01/16 00:29:27;;;;;;;9.17;3.57;;;;;;;;;;5024523;28;20200;-67
2024/01/16 00:31:54;;;;;;;9.07;4.23;;;;;;;;;;5026716;28;20211;-68
2024/01/16 00:34:21;;;;;;;5.80;3.90;;;;;;;;;;5019378;28;20286;-67
2024/01/16 00:36:48;;;;;;;6.10;3.90;;;;;;;;;;5023569;28;20208;-67
2024/01/16 00:39:15;;;;;;;6.90;3.60;;;;;;;;;;5023557;28;20208;-68
2024/01/16 00:41:42;;;;;;;8.37;3.73;;;;;;;;;;5025650;28;20200;-68
2024/01/16 00:44:12;;;;;;;6.77;3.93;;;;;;;;;;5028089;28;20212;-68
2024/01/16 00:46:39;;;;;;;7.10;3.73;;;;;;;;;;5022592;28;20213;-67
2024/01/16 00:49:07;;;;;;;5.70;3.40;;;;;;;;;;5024860;28;20207;-68
2024/01/16 00:51:34;;;;;;;7.90;3.73;;;;;;;;;;5020842;28;20304;-67
2024/01/16 00:54:01;;;;;;;7.73;3.70;;;;;;;;;;5017383;28;20199;-67
2024/01/16 00:56:31;;;;;;;6.67;4.20;;;;;;;;;;5021549;28;20204;-62
2024/01/16 00:58:58;;;;;;;8.30;3.93;;;;;;;;;;5020663;28;20291;-63
2024/01/16 01:01:26;;;;;;;8.93;3.97;;;;;;;;;;5019191;28;20331;-63
2024/01/16 01:03:54;;;;;;;7.67;3.63;;;;;;;;;;5019604;28;20201;-62
2024/01/16 01:06:22;;;;;;;6.20;3.60;;;;;;;;;;5020685;28;20300;-62
2024/01/16 01:08:49;;;;;;;6.03;3.83;;;;;;;;;;5024172;28;20212;-64
2024/01/16 01:11:16;;;;;;;8.90;4.00;;;;;;;;;;5020477;28;20220;-62
2024/01/16 01:13:43;;;;;;;6.60;3.87;;;;;;;;;;5021101;28;20235;-63
2024/01/16 01:16:10;;;;;;;5.70;3.20;;;;;;;;;;5026560;28;20212;-63
2024/01/16 01:18:39;;;;;;;5.70;3.63;;;;;;;;;;5021553;28;20211;-62
2024/01/16 01:21:06;;;;;;;4.27;3.27;;;;;;;;;;5021296;28;20211;-63
2024/01/16 01:23:33;;;;;;;8.07;3.77;;;;;;;;;;5023627;28;20211;-62
2024/01/16 01:26:00;;;;;;;10.63;4.03;;;;;;;;;;5022058;28;20217;-62
2024/01/16 01:28:27;;;;;;;9.23;4.00;;;;;;;;;;5019805;28;20202;-62
2024/01/16 01:30:55;;;;;;;8.30;3.50;;;;;;;;;;5026055;28;20207;-62
2024/01/16 01:33:22;;;;;;;4.83;3.63;;;;;;;;;;5024200;28;20197;-62
2024/01/16 01:35:50;;;;;;;8.13;3.80;;;;;;;;;;5020941;28;20272;-62
2024/01/16 01:38:19;;;;;;;7.07;3.30;;;;;;;;;;5025406;28;20211;-62
2024/01/16 01:40:46;;;;;;;7.43;3.70;;;;;;;;;;5021906;28;20217;-62
2024/01/16 01:43:19;;;;;;;8.87;3.73;;;;;;;;;;5016985;28;20219;-62
2024/01/16 01:45:49;;;;;;;7.57;3.70;;;;;;;;;;5018461;28;20235;-62
2024/01/16 01:48:16;;;;;;;4.60;3.80;;;;;;;;;;5024714;28;20284;-62
2024/01/16 01:50:43;;;;;;;8.10;4.00;;;;;;;;;;5018324;28;20212;-63
2024/01/16 01:53:12;;;;;;;7.50;3.90;;;;;;;;;;5023901;28;20211;-62
2024/01/16 01:55:39;;;;;;;7.33;3.50;;;;;;;;;;5024379;28;20196;-62
2024/01/16 01:58:06;;;;;;;6.90;3.97;;;;;;;;;;5022715;28;20209;-63
2024/01/16 02:00:33;;;;;;;7.13;3.80;;;;;;;;;;5018488;28;20212;-62
2024/01/16 02:03:01;;;;;;;8.07;4.03;;;;;;;;;;5024372;28;20236;-63
2024/01/16 02:05:28;;;;;;;12.17;4.20;;;;;;;;;;5018175;28;20233;-62
2024/01/16 02:07:55;;;;;;;12.17;5.10;;;;;;;;;;5024198;28;20208;-67
2024/01/16 02:10:24;;;;;;;7.17;3.97;;;;;;;;;;5019224;28;20215;-68
2024/01/16 02:12:51;;;;;;;8.73;3.93;;;;;;;;;;5015512;28;20258;-68
2024/01/16 02:15:18;;;;;;;7.17;4.20;;;;;;;;;;5019410;28;20207;-67
2024/01/16 02:17:45;;;;;;;10.23;4.33;;;;;;;;;;5020768;28;20516;-67
2024/01/16 02:20:12;;;;;;;8.27;4.47;;;;;;;;;;5016888;28;20214;-67
2024/01/16 02:22:40;;;;;;;9.27;4.43;;;;;;;;;;5018409;28;20308;-67
2024/01/16 02:25:09;;;;;;;8.77;4.53;;;;;;;;;;5017029;28;20215;-67
2024/01/16 02:27:36;;;;;;;8.07;4.27;;;;;;;;;;5018451;28;20214;-68
2024/01/16 02:30:04;;;;;;;7.23;4.10;;;;;;;;;;5016217;28;20207;-67
2024/01/16 02:32:31;;;;;;;7.87;4.40;;;;;;;;;;5014381;28;20245;-68
2024/01/16 02:34:58;;;;;;;8.77;4.60;;;;;;;;;;5015393;28;20208;-68
2024/01/16 02:37:25;;;;;;;10.63;4.27;;;;;;;;;;5017170;28;20197;-67
2024/01/16 02:39:52;;;;;;;6.83;4.07;;;;;;;;;;5018297;28;20209;-67
2024/01/16 02:42:21;;;;;;;7.77;4.33;;;;;;;;;;5015584;28;20215;-68
2024/01/16 02:44:48;;;;;;;11.33;4.30;;;;;;;;;;5017182;28;20230;-68
2024/01/16 02:47:15;;;;;;;7.17;4.57;;;;;;;;;;5020672;28;20220;-68
2024/01/16 02:49:42;;;;;;;9.80;4.73;;;;;;;;;;5016743;28;20204;-67
2024/01/16 02:52:09;;;;;;;9.23;4.53;;;;;;;;;;5013396;28;20209;-68
2024/01/16 02:54:36;;;;;;;12.67;4.50;;;;;;;;;;5015869;28;20215;-68
2024/01/16 02:57:04;;;;;;;5.37;4.00;;;;;;;;;;5015449;28;20207;-68
2024/01/16 02:59:32;;;;;;;7.93;4.40;;;;;;;;;;5018331;28;20214;-67
2024/01/16 03:01:59;;;;;;;6.93;4.20;;;;;;;;;;5015982;28;20232;-67
2024/01/16 03:04:26;;;;;;;5.73;4.27;;;;;;;;;;5014396;28;20222;-67
2024/01/16 03:06:54;;;;;;;7.50;4.33;;;;;;;;;;5015191;28;20315;-67
2024/01/16 03:09:21;;;;;;;10.37;4.63;;;;;;;;;;5018190;28;20276;-67
2024/01/16 03:11:49;;;;;;;8.73;4.43;;;;;;;;;;5021484;28;20219;-67
2024/01/16 03:14:16;;;;;;;7.10;4.33;;;;;;;;;;5015716;28;20211;-68
2024/01/16 03:16:44;;;;;;;7.53;4.50;;;;;;;;;;5015189;28;20206;-63
2024/01/16 03:19:11;;;;;;;7.47;4.27;;;;;;;;;;5017700;28;20205;-62
2024/01/16 03:21:39;;;;;;;10.53;4.50;;;;;;;;;;5017967;28;20224;-62
2024/01/16 03:24:06;;;;;;;8.03;4.40;;;;;;;;;;5017858;28;20282;-63
2024/01/16 03:26:33;;;;;;;7.70;4.13;;;;;;;;;;5012165;28;20237;-62
2024/01/16 03:29:01;;;;;;;6.07;4.27;;;;;;;;;;5016450;28;20205;-63
2024/01/16 03:31:28;;;;;;;9.33;4.40;;;;;;;;;;5016599;28;20215;-63
2024/01/16 03:33:56;;;;;;;5.97;4.03;;;;;;;;;;5014795;28;20217;-63
2024/01/16 03:36:23;;;;;;;8.90;4.23;;;;;;;;;;5014768;28;20211;-62
2024/01/16 03:38:51;;;;;;;7.37;4.20;;;;;;;;;;5014997;28;20212;-62
2024/01/16 03:41:18;;;;;;;8.83;4.63;;;;;;;;;;5013268;28;20207;-62
2024/01/16 03:43:45;;;;;;;8.00;4.30;;;;;;;;;;5019076;28;20228;-62
2024/01/16 03:46:12;;;;;;;8.13;4.03;;;;;;;;;;5016512;28;20228;-63
2024/01/16 03:48:39;;;;;;;7.80;4.33;;;;;;;;;;5016248;28;20215;-62
2024/01/16 03:51:08;;;;;;;8.00;4.53;;;;;;;;;;5013796;28;20204;-63
2024/01/16 03:53:35;;;;;;;10.87;4.67;;;;;;;;;;5017113;28;20227;-62
2024/01/16 03:56:02;;;;;;;7.70;4.60;;;;;;;;;;5017309;28;20484;-63
2024/01/16 03:58:29;;;;;;;10.17;4.80;;;;;;;;;;5018258;28;20210;-62
2024/01/16 04:00:56;;;;;;;8.43;4.67;;;;;;;;;;5012711;28;20215;-63
2024/01/16 04:03:23;;;;;;;7.07;4.40;;;;;;;;;;5017439;28;20319;-64
2024/01/16 04:05:50;;;;;;;5.30;4.10;;;;;;;;;;5016644;28;20360;-62
2024/01/16 04:08:19;;;;;;;7.20;4.17;;;;;;;;;;5023045;28;20212;-62
2024/01/16 04:10:46;;;;;;;7.97;4.40;;;;;;;;;;5011219;28;20215;-62
2024/01/16 04:13:13;;;;;;;7.07;4.00;;;;;;;;;;5017408;28;20201;-63
2024/01/16 04:15:40;;;;;;;9.87;4.27;;;;;;;;;;5020657;28;20214;-63
2024/01/16 04:18:08;;;;;;;9.73;4.50;;;;;;;;;;5017703;28;20300;-63
2024/01/16 04:20:35;;;;;;;8.00;3.97;;;;;;;;;;5017185;28;20222;-63
2024/01/16 04:23:02;;;;;;;6.97;4.17;;;;;;;;;;5013426;28;20299;-62
2024/01/16 04:25:30;;;;;;;6.03;3.80;;;;;;;;;;5010893;28;20215;-62
2024/01/16 04:27:57;;;;;;;6.17;4.30;;;;;;;;;;5014350;28;20216;-67
2024/01/16 04:30:24;;;;;;;5.83;4.17;;;;;;;;;;5017121;28;20209;-68
2024/01/16 04:32:52;;;;;;;8.77;4.17;;;;;;;;;;5013899;28;20299;-67
2024/01/16 04:35:19;;;;;;;7.17;4.40;;;;;;;;;;5017027;28;20200;-68
2024/01/16 04:37:46;;;;;;;8.97;4.77;;;;;;;;;;5023154;28;20420;-67
2024/01/16 04:40:13;;;;;;;7.53;4.00;;;;;;;;;;5014865;28;20213;-67
2024/01/16 04:42:42;;;;;;;6.43;4.37;;;;;;;;;;5019056;28;20208;-67
2024/01/16 04:45:09;;;;;;;7.40;4.60;;;;;;;;;;5018255;28;20200;-68
2024/01/16 04:47:36;;;;;;;7.30;4.60;;;;;;;;;;5019470;28;20228;-67
2024/01/16 04:50:04;;;;;;;6.90;4.90;;;;;;;;;;5022991;28;20205;-68
2024/01/16 04:52:31;;;;;;;12.17;4.57;;;;;;;;;;5019142;28;20200;-67
2024/01/16 04:54:58;;;;;;;6.57;4.10;;;;;;;;;;5019258;28;20208;-68
2024/01/16 04:57:25;;;;;;;7.53;4.17;;;;;;;;;;5018500;28;20195;-68
2024/01/16 04:59:54;;;;;;;9.10;4.50;;;;;;;;;;5021182;28;20203;-68
2024/01/16 05:02:21;;;;;;;9.17;4.27;;;;;;;;;;5027976;28;20327;-68
2024/01/16 05:04:51;;;;;;;9.33;4.73;;;;;;;;;;5022790;28;20220;-68
2024/01/16 05:07:20;;;;;;;8.80;4.20;;;;;;;;;;5020079;28;20236;-68
2024/01/16 05:09:47;;;;;;;8.30;4.37;;;;;;;;;;5023447;28;20252;-68
2024/01/16 05:12:14;;;;;;;6.00;4.20;;;;;;;;;;5026369;28;21731;-67
2024/01/16 05:14:41;;;;;;;7.03;3.93;;;;;;;;;;5025397;28;20204;-68
2024/01/16 05:17:10;;;;;;;11.57;6.93;;;;;;;;;;5023790;28;20206;-67
2024/01/16 05:19:37;;;;;;;6.70;4.13;;;;;;;;;;5025080;28;20205;-67
2024/01/16 05:22:04;;;;;;;7.67;4.17;;;;;;;;;;5029165;28;20207;-68
2024/01/16 05:24:31;;;;;;;8.67;4.50;;;;;;;;;;5025668;28;20210;-68
2024/01/16 05:26:58;;;;;;;6.13;4.20;;;;;;;;;;5026281;28;20220;-69
2024/01/16 05:29:25;;;;;;;9.07;4.30;;;;;;;;;;5026717;28;20204;-68
2024/01/16 05:31:53;;;;;;;6.33;4.10;;;;;;;;;;5023016;28;20230;-68
2024/01/16 05:34:33;;;;;;;7.00;4.30;;;;;;;;;;5021345;28;20208;-68
2024/01/16 05:37:00;;;;;;;8.93;4.07;;;;;;;;;;5019580;28;20221;-62
2024/01/16 05:39:27;;;;;;;10.00;4.50;;;;;;;;;;5020276;28;20219;-62
2024/01/16 05:41:55;;;;;;;8.20;4.40;;;;;;;;;;5018427;28;20200;-62
2024/01/16 05:44:22;;;;;;;8.73;4.43;;;;;;;;;;5017615;28;20204;-62
2024/01/16 05:46:49;;;;;;;5.60;4.23;;;;;;;;;;5019566;28;20219;-63
2024/01/16 05:49:16;;;;;;;6.67;3.90;;;;;;;;;;5020525;28;20219;-62
2024/01/16 05:51:44;;;;;;;6.77;4.27;;;;;;;;;;5020136;28;20216;-63
2024/01/16 05:54:11;;;;;;;9.97;4.50;;;;;;;;;;5023382;28;20239;-63
2024/01/16 05:56:39;;;;;;;8.20;4.30;;;;;;;;;;5019912;28;20197;-62
2024/01/16 05:59:06;;;;;;;6.43;4.23;;;;;;;;;;5027104;28;20204;-63
2024/01/16 06:01:34;;;;;;;8.33;4.70;;;;;;;;;;5022520;28;20236;-62
2024/01/16 06:04:01;;;;;;;7.03;4.57;;;;;;;;;;5019025;28;20224;-63
2024/01/16 06:06:28;;;;;;;7.83;4.33;;;;;;;;;;5018443;28;20212;-62
2024/01/16 06:08:57;;;;;;;6.83;4.40;;;;;;;;;;5022182;28;20201;-62
2024/01/16 06:11:31;;;;;;;10.17;4.83;;;;;;;;;;5021563;28;20213;-63
2024/01/16 06:13:59;;;;;;;6.90;4.23;;;;;;;;;;5023873;28;20232;-62
2024/01/16 06:16:26;;;;;;;10.07;4.87;;;;;;;;;;5026485;28;20211;-62
2024/01/16 06:18:53;;;;;;;13.90;5.03;;;;;;;;;;5020954;28;20204;-62
2024/01/16 06:21:20;;;;;;;9.70;5.13;;;;;;;;;;5018944;28;20299;-62
2024/01/16 06:23:47;;;;;;;6.07;4.40;;;;;;;;;;5021301;28;20207;-63
2024/01/16 06:26:16;;;;;;;10.70;5.07;;;;;;;;;;5017257;28;20210;-63
2024/01/16 06:28:43;;;;;;;9.70;5.20;;;;;;;;;;5016780;28;21398;-62
2024/01/16 06:31:10;;;;;;;6.27;4.83;;;;;;;;;;5013392;28;20209;-63
2024/01/16 06:33:37;;;;;;;6.73;4.37;;;;;;;;;;5021032;28;20213;-63
2024/01/16 06:36:05;;;;;;;13.60;5.60;;;;;;;;;;5022463;28;20204;-64
2024/01/16 06:38:32;;;;;;;9.53;5.50;;;;;;;;;;5015903;28;20237;-62
2024/01/16 06:40:59;;;;;;;11.97;5.20;;;;;;;;;;5019209;28;20197;-63
2024/01/16 06:43:27;;;;;;;12.53;4.97;;;;;;;;;;5017888;28;20205;-62
2024/01/16 06:45:54;;;;;;;6.93;4.83;;;;;;;;;;5021717;28;20291;-62
2024/01/16 06:48:21;;;;;;;7.80;4.97;;;;;;;;;;5014351;28;20234;-68
2024/01/16 06:50:49;;;;;;;6.87;4.57;;;;;;;;;;5016670;28;20204;-68
2024/01/16 06:53:16;;;;;;;9.90;4.83;;;;;;;;;;5019324;28;20291;-68
2024/01/16 06:55:43;;;;;;;8.47;4.53;;;;;;;;;;5021059;28;20214;-68
2024/01/16 06:58:10;;;;;;;9.37;4.20;;;;;;;;;;5016595;28;20208;-68
2024/01/16 07:00:41;;;;;;;12.47;4.90;;;;;;;;;;5018611;28;20211;-68
2024/01/16 07:03:08;;;;;;;8.50;4.93;;;;;;;;;;5006475;28;20236;-68
2024/01/16 07:05:35;;;;;;;10.63;5.23;;;;;;;;;;5011067;28;20204;-68
2024/01/16 07:08:02;;;;;;;8.23;5.03;;;;;;;;;;5010819;28;20212;-67
2024/01/16 07:10:30;;;;;;;8.53;5.03;;;;;;;;;;5004358;28;20201;-68
2024/01/16 07:12:57;;;;;;;10.43;5.20;;;;;;;;;;5006932;28;20205;-68
2024/01/16 07:15:24;;;;;;;9.20;5.33;;;;;;;;;;5006693;28;20212;-67
2024/01/16 07:17:53;;;;;;;9.60;5.47;;;;;;;;;;5010074;28;20283;-68
2024/01/16 07:20:20;;;;;;;11.90;5.37;;;;;;;;;;5019983;28;20306;-67
2024/01/16 07:22:47;;;;;;;9.50;5.40;;;;;;;;;;5019393;28;20387;-68
2024/01/16 07:25:14;;;;;;;10.90;4.90;;;;;;;;;;5022023;28;20212;-68
2024/01/16 07:27:42;;;;;;;9.40;5.43;;;;;;;;;;5021023;28;20224;-68
2024/01/16 07:30:10;;;;;;;8.90;5.37;;;;;;;;;;5020476;28;20209;-68
2024/01/16 07:32:37;;;;;;;7.73;5.60;;;;;;;;;;5008032;28;20204;-67
2024/01/16 07:35:05;;;;;;;8.60;5.80;;;;;;;;;;5013999;28;20219;-68
2024/01/16 07:37:33;;;;;;;8.57;4.77;;;;;;;;;;5014424;28;20200;-68
2024/01/16 07:40:00;;;;;;;10.03;5.20;;;;;;;;;;5015422;28;20201;-68
2024/01/16 07:42:33;;;;;;;9.23;5.87;;;;;;;;;;5017531;28;20202;-67
2024/01/16 07:45:00;;;;;;;9.13;6.27;;;;;;;;;;5012528;28;20211;-68
2024/01/16 07:47:28;;;;;;;9.67;5.93;;;;;;;;;;5014105;28;20224;-67
2024/01/16 07:49:55;;;;;;;11.17;5.87;;;;;;;;;;5025833;28;20204;-68
2024/01/16 07:52:23;;;;;;;9.97;5.80;;;;;;;;;;5023449;28;20238;-68
2024/01/16 07:54:50;;;;;;;8.83;5.63;;;;;;;;;;5025410;28;20200;-68
2024/01/16 07:57:17;;;;;;;9.90;5.90;;;;;;;;;;5018688;28;20205;-63
2024/01/16 07:59:45;;;;;;;12.67;6.60;;;;;;;;;;5021511;28;20201;-62
2024/01/16 08:02:12;;;;;;;8.87;5.63;;;;;;;;;;5027597;28;20243;-63
2024/01/16 08:04:39;;;;;;;8.47;5.50;;;;;;;;;;5020364;28;20207;-62
2024/01/16 08:07:06;;;;;;;12.70;6.13;;;;;;;;;;5020700;28;20295;-63
2024/01/16 08:09:35;;;;;;;11.23;6.30;;;;;;;;;;5017317;28;20214;-62
2024/01/16 08:12:02;;;;;;;11.47;6.23;;;;;;;;;;5021903;28;20205;-62
2024/01/16 08:14:29;;;;;;;12.60;6.00;;;;;;;;;;5026811;28;20235;-63
2024/01/16 08:16:57;;;;;;;10.33;5.93;;;;;;;;;;5020031;28;20263;-62
2024/01/16 08:19:24;;;;;;;11.90;5.50;;;;;;;;;;5021861;28;20203;-63
2024/01/16 08:21:51;;;;;;;8.97;5.87;;;;;;;;;;5022619;28;20205;-63
2024/01/16 08:24:18;;;;;;;9.60;5.60;;;;;;;;;;5025099;28;20214;-62
2024/01/16 08:26:46;;;;;;;10.07;5.70;;;;;;;;;;5021031;28;20211;-62
2024/01/16 08:29:14;;;;;;;11.43;6.27;;;;;;;;;;5022230;28;20406;-63
2024/01/16 08:31:42;;;;;;;10.77;6.30;;;;;;;;;;5030273;28;20268;-62
2024/01/16 08:34:09;;;;;;;9.07;6.10;;;;;;;;;;5026810;28;20208;-62
2024/01/16 08:36:37;;;;;;;13.33;6.00;;;;;;;;;;5029297;28;20239;-62
2024/01/16 08:39:05;;;;;;;8.50;6.47;;;;;;;;;;5022365;28;20215;-62
2024/01/16 08:41:32;;;;;;;9.83;5.67;;;;;;;;;;5021347;28;20196;-64
2024/01/16 08:44:01;;;;;;;11.60;5.87;;;;;;;;;;5020624;28;20213;-62
2024/01/16 08:46:28;;;;;;;12.03;6.20;;;;;;;;;;5029381;28;20291;-63
2024/01/16 08:48:55;;;;;;;10.43;5.77;;;;;;;;;;5022470;28;20216;-64
2024/01/16 08:51:23;;;;;;;13.13;6.20;;;;;;;;;;5027040;28;20222;-63
2024/01/16 08:53:50;;;;;;;11.03;5.67;;;;;;;;;;5016502;28;20291;-63
2024/01/16 08:56:17;;;;;;;8.40;5.83;;;;;;;;;;5012009;28;20205;-62
2024/01/16 08:58:45;;;;;;;10.40;5.80;;;;;;;;;;5011881;28;20205;-63
2024/01/16 09:01:14;;;;;;;13.47;5.70;;;;;;;;;;5013457;28;20220;-63
2024/01/16 09:03:43;;;;;;;10.27;5.63;;;;;;;;;;5010891;28;20270;-62
2024/01/16 09:06:10;;;;;;;9.40;5.20;;;;;;;;;;5013432;28;20215;-63
2024/01/16 09:08:37;;;;;;;8.73;5.10;;;;;;;;;;5016538;28;20303;-63
2024/01/16 09:11:04;;;;;;;11.97;6.00;;;;;;;;;;5012021;28;20201;-62
2024/01/16 09:13:32;;;;;;;11.83;5.47;;;;;;;;;;5013764;28;20209;-63
2024/01/16 09:15:59;;;;;;;11.73;5.73;;;;;;;;;;5011047;28;20219;-63
2024/01/16 09:18:27;;;;;;;11.23;5.50;;;;;;;;;;5012941;28;20216;-62
2024/01/16 09:20:54;;;;;;;10.10;5.20;;;;;;;;;;5021439;28;20208;-62
2024/01/16 09:23:22;;;;;;;12.83;6.60;;;;;;;;;;5027415;28;20217;-62
2024/01/16 09:25:49;;;;;;;9.20;5.67;;;;;;;;;;5022920;28;20208;-63
2024/01/16 09:28:17;;;;;;;10.63;6.17;;;;;;;;;;5024431;28;20237;-62
2024/01/16 09:30:44;;;;;;;8.10;5.43;;;;;;;;;;5024312;28;20198;-63
2024/01/16 09:33:11;;;;;;;9.33;5.90;;;;;;;;;;5020130;28;20213;-63
2024/01/16 09:35:40;;;;;;;13.03;6.50;;;;;;;;;;5023051;28;20251;-62
2024/01/16 09:38:07;;;;;;;13.00;6.00;;;;;;;;;;5023368;28;20197;-62
2024/01/16 09:40:35;;;;;;;10.63;5.80;;;;;;;;;;5025884;28;20226;-62
2024/01/16 09:43:04;;;;;;;10.03;6.20;;;;;;;;;;5023725;28;20200;-62
2024/01/16 09:45:31;;;;;;;11.53;5.70;;;;;;;;;;5022720;28;20212;-62
2024/01/16 09:48:00;;;;;;;10.33;5.47;;;;;;;;;;5020512;28;20224;-63
2024/01/16 09:50:27;;;;;;;9.50;6.10;;;;;;;;;;5017776;28;20201;-63
2024/01/16 09:52:56;;;;;;;12.50;6.20;;;;;;;;;;5007527;28;20232;-62
2024/01/16 09:55:23;;;;;;;8.07;5.83;;;;;;;;;;5010176;28;20208;-63
2024/01/16 09:57:53;;;;;;;11.40;6.00;;;;;;;;;;5010892;28;20212;-63
2024/01/16 10:00:20;;;;;;;10.40;5.93;;;;;;;;;;5009894;28;20209;-62
2024/01/16 10:02:48;;;;;;;9.77;6.00;;;;;;;;;;5009638;28;20231;-63
2024/01/16 10:05:15;;;;;;;12.77;6.10;;;;;;;;;;5010323;28;20210;-62
2024/01/16 10:07:44;;;;;;;7.10;5.20;;;;;;;;;;5010680;28;20208;-62
2024/01/16 10:10:12;;;;;;;9.57;6.13;;;;;;;;;;5015712;28;20210;-62
2024/01/16 10:12:40;;;;;;;10.73;5.90;;;;;;;;;;5011858;28;20200;-64
2024/01/16 10:15:08;;;;;;;10.33;6.30;;;;;;;;;;5009607;28;20211;-63
2024/01/16 10:17:39;;;;;;;9.27;5.53;;;;;;;;;;5007375;28;20224;-67
2024/01/16 10:20:06;;;;;;;10.10;6.53;;;;;;;;;;5002410;28;20232;-67
2024/01/16 10:22:34;;;;;;;8.27;5.80;;;;;;;;;;5014451;28;20216;-68
2024/01/16 10:25:08;;;;;;;10.90;5.73;;;;;;;;;;5019145;28;20204;-67
2024/01/16 10:27:37;;;;;;;12.23;5.77;;;;;;;;;;5017677;28;20301;-68
2024/01/16 10:30:05;;;;;;;10.90;5.17;;;;;;;;;;5015765;28;20490;-66
2024/01/16 10:32:32;;;;;;;7.70;5.23;;;;;;;;;;5020738;28;20210;-67
2024/01/16 10:35:04;;;;;;;10.30;5.40;;;;;;;;;;5017995;28;20212;-67
2024/01/16 10:37:31;;;;;;;9.33;5.47;;;;;;;;;;5018648;28;20208;-69
2024/01/16 10:39:58;;;;;;;11.47;6.10;;;;;;;;;;5018385;28;20254;-67
2024/01/16 10:42:25;;;;;;;9.70;6.10;;;;;;;;;;5017796;28;20211;-69
2024/01/16 10:44:56;;;;;;;8.73;5.40;;;;;;;;;;5022587;28;20209;-68
2024/01/16 10:47:24;;;;;;;10.93;5.67;;;;;;;;;;5020347;28;20891;-67
2024/01/16 10:49:51;;;;;;;9.53;5.90;;;;;;;;;;5021786;28;20229;-67
2024/01/16 10:52:19;;;;;;;9.87;5.23;;;;;;;;;;5023808;28;20212;-67
2024/01/16 10:54:49;;;;;;;9.47;5.40;;;;;;;;;;5022166;28;20246;-67
2024/01/16 10:57:16;;;;;;;8.93;5.20;;;;;;;;;;5020530;28;20208;-67
2024/01/16 10:59:48;;;;;;;10.47;5.03;;;;;;;;;;5022754;28;20239;-68
2024/01/16 11:02:17;;;;;;;8.70;4.87;;;;;;;;;;5022365;28;20232;-67
2024/01/16 11:04:44;;;;;;;12.33;5.17;;;;;;;;;;5021210;28;20212;-67
2024/01/16 11:07:12;;;;;;;11.43;5.00;;;;;;;;;;5018012;28;20200;-67
2024/01/16 11:09:41;;;;;;;12.83;5.07;;;;;;;;;;5023747;28;20243;-66
2024/01/16 11:12:08;;;;;;;9.73;4.40;;;;;;;;;;5022662;28;20211;-67
2024/01/16 11:14:36;;;;;;;12.03;5.23;;;;;;;;;;5018121;28;20200;-67
2024/01/16 11:17:04;;;;;;;8.07;4.73;;;;;;;;;;5019524;28;20693;-66
2024/01/16 11:19:33;;;;;;;10.83;5.33;;;;;;;;;;5017301;28;20200;-67
2024/01/16 11:22:00;;;;;;;9.13;5.30;;;;;;;;;;5018652;28;20200;-67
2024/01/16 11:24:27;;;;;;;10.27;4.87;;;;;;;;;;5020518;28;20204;-66
2024/01/16 11:26:54;;;;;;;10.43;5.73;;;;;;;;;;5019009;28;20196;-63
2024/01/16 11:29:37;;;;;;;9.23;4.83;;;;;;;;;;5017903;28;20220;-62
2024/01/16 11:32:05;;;;;;;8.27;4.80;;;;;;;;;;5017841;28;20204;-62
2024/01/16 11:34:54;;;;;;;8.97;4.93;;;;;;;;;;5017900;28;20217;-62
2024/01/16 11:37:28;;;;;;;7.50;5.33;;;;;;;;;;5019253;28;20251;-62
2024/01/16 11:40:21;;;;;;;8.33;5.03;;;;;;;;;;5017876;28;20199;-62
2024/01/16 11:42:49;;;;;;;8.53;5.30;;;;;;;;;;5018633;28;20200;-62
2024/01/16 11:45:31;;;;;;;12.63;5.50;;;;;;;;;;5019165;28;20210;-62
2024/01/16 11:48:10;;;;;;;8.83;5.30;;;;;;;;;;5026477;28;20205;-62
2024/01/16 11:50:37;;;;;;;9.73;4.90;;;;;;;;;;5021404;28;20286;-62
2024/01/16 11:53:06;;;;;;;14.63;6.40;;;;;;;;;;5024116;28;20248;-64
2024/01/16 11:55:35;;;;;;;8.57;4.63;;;;;;;;;;5025879;28;20216;-62
2024/01/16 11:58:20;;;;;;;10.77;4.93;;;;;;;;;;5025300;28;20211;-62
2024/01/16 12:00:50;;;;;;;8.93;5.00;;;;;;;;;;5016050;28;20239;-62
2024/01/16 12:03:19;;;;;;;8.80;5.53;;;;;;;;;;5022389;28;20232;-62
2024/01/16 12:05:56;;;;;;;6.70;4.67;;;;;;;;;;5021578;28;20215;-63
2024/01/16 12:08:24;;;;;;;6.73;4.77;;;;;;;;;;5022291;28;20204;-64
2024/01/16 12:10:51;;;;;;;10.30;5.37;;;;;;;;;;5025243;28;20405;-62
2024/01/16 12:13:18;;;;;;;8.73;5.03;;;;;;;;;;5026840;28;20276;-63
2024/01/16 12:15:46;;;;;;;8.30;5.50;;;;;;;;;;5019687;28;20197;-62
2024/01/16 12:18:19;;;;;;;8.57;5.30;;;;;;;;;;5022056;28;20211;-63
2024/01/16 12:20:46;;;;;;;9.23;5.23;;;;;;;;;;5025041;28;20204;-62
2024/01/16 12:23:15;;;;;;;10.23;5.07;;;;;;;;;;5022334;28;20212;-62
2024/01/16 12:25:43;;;;;;;8.33;5.40;;;;;;;;;;5020736;28;20204;-63
2024/01/16 12:28:11;;;;;;;7.90;4.60;;;;;;;;;;5018315;28;20235;-62
2024/01/16 12:30:39;;;;;;;10.50;5.40;;;;;;;;;;5020836;28;20233;-63
2024/01/16 12:33:07;;;;;;;9.70;4.73;;;;;;;;;;5023651;28;20208;-63
2024/01/16 12:35:35;;;;;;;6.97;4.37;;;;;;;;;;5021955;28;20208;-63
2024/01/16 12:38:02;;;;;;;10.07;4.30;;;;;;;;;;5019300;28;20212;-67
2024/01/16 12:40:30;;;;;;;9.73;5.03;;;;;;;;;;5021811;28;20211;-67
2024/01/16 12:42:58;;;;;;;8.40;4.40;;;;;;;;;;5020537;28;20219;-67
2024/01/16 12:45:26;;;;;;;7.70;4.50;;;;;;;;;;5015476;28;20212;-67
2024/01/16 12:47:53;;;;;;;10.33;4.20;;;;;;;;;;5024434;28;20212;-67
2024/01/16 12:50:22;;;;;;;10.13;4.63;;;;;;;;;;5022743;28;20231;-66
2024/01/16 12:52:49;;;;;;;7.13;4.63;;;;;;;;;;5016427;28;20209;-67
2024/01/16 12:55:17;;;;;;;7.73;3.97;;;;;;;;;;5017083;28;20204;-67
2024/01/16 12:57:44;;;;;;;6.03;3.30;;;;;;;;;;5024747;28;20295;-67
2024/01/16 13:00:29;;;;;;;6.07;3.67;;;;;;;;;;5024139;28;20201;-67
2024/01/16 13:03:01;;;;;;;6.73;3.30;;;;;;;;;;5020976;28;20227;-68
2024/01/16 13:05:28;;;;;;;5.47;3.67;;;;;;;;;;5016558;28;20200;-67
2024/01/16 13:08:03;;;;;;;6.90;3.17;;;;;;;;;;5018599;28;20204;-67
2024/01/16 13:10:31;;;;;;;9.97;3.60;;;;;;;;;;5019601;28;20227;-67
2024/01/16 13:13:13;;;;;;;5.90;3.47;;;;;;;;;;5021766;28;20196;-67
2024/01/16 13:15:41;;;;;;;7.57;3.53;;;;;;;;;;5019308;28;20207;-66
2024/01/16 13:18:18;;;;;;;8.40;3.57;;;;;;;;;;5021923;28;20212;-67
2024/01/16 13:20:45;;;;;;;4.90;2.93;;;;;;;;;;5021626;28;20200;-67
2024/01/16 13:23:14;;;;;;;8.40;3.10;;;;;;;;;;5018760;28;20207;-67
2024/01/16 13:25:43;;;;;;;5.37;3.63;;;;;;;;;;5016712;28;20201;-67
2024/01/16 13:28:10;;;;;;;8.20;3.80;;;;;;;;;;5020795;28;20213;-68
2024/01/16 13:30:37;;;;;;;8.20;3.03;;;;;;;;;;5014226;28;20249;-67
2024/01/16 13:33:05;;;;;;;5.97;2.80;;;;;;;;;;5022988;28;20232;-67
2024/01/16 13:35:37;;;;;;;4.47;3.00;;;;;;;;;;5017902;28;20192;-67
2024/01/16 13:38:04;;;;;;;6.57;3.13;;;;;;;;;;5018992;28;20208;-67
2024/01/16 13:40:32;;;;;;;4.70;2.90;;;;;;;;;;5018503;28;20214;-67
2024/01/16 13:42:59;;;;;;;5.40;3.10;;;;;;;;;;5022007;28;20208;-68
2024/01/16 13:45:26;;;;;;;6.87;3.03;;;;;;;;;;5020200;28;20215;-67
2024/01/16 13:47:53;;;;;;;7.77;3.00;;;;;;;;;;5023173;28;20203;-66
2024/01/16 13:50:20;;;;;;;5.53;2.63;;;;;;;;;;5022160;28;20228;-68
2024/01/16 13:52:49;;;;;;;9.43;3.20;;;;;;;;;;5019420;28;20299;-67
2024/01/16 13:55:16;;;;;;;6.17;3.30;;;;;;;;;;5010403;28;20227;-67
2024/01/16 13:57:43;;;;;;;6.13;2.93;;;;;;;;;;5021021;28;20207;-68
2024/01/16 14:00:13;;;;;;;5.03;2.97;;;;;;;;;;5022059;28;20201;-68
2024/01/16 14:02:40;;;;;;;4.63;3.10;;;;;;;;;;5022998;28;20232;-67
2024/01/16 14:05:10;;;;;;;3.57;2.60;;;;;;;;;;5009111;28;20216;-67
2024/01/16 14:07:37;;;;;;;4.13;2.90;;;;;;;;;;5003482;28;20211;-67
2024/01/16 14:10:07;;;;;;;5.27;2.77;;;;;;;;;;5005895;28;20228;-67
2024/01/16 14:12:35;;;;;;;4.87;2.87;;;;;;;;;;5011395;28;20204;-67
2024/01/16 14:15:06;;;;;;;6.70;3.40;;;;;;;;;;5009594;28;20296;-67
2024/01/16 14:17:35;;;;;;;5.20;2.57;;;;;;;;;;5014624;28;20285;-67
2024/01/16 14:20:02;;;;;;;4.27;2.87;;;;;;;;;;5012584;28;20212;-67
2024/01/16 14:22:29;;;;;;;4.87;2.80;;;;;;;;;;5018513;28;20204;-67
2024/01/16 14:24:57;;;;;;;4.20;2.90;;;;;;;;;;5019084;28;20208;-68
2024/01/16 14:27:25;;;;;;;6.93;2.80;;;;;;;;;;5011772;28;22710;-68
2024/01/16 14:29:54;;;;;;;5.73;2.93;;;;;;;;;;5019262;28;20220;-68
2024/01/16 14:32:21;;;;;;;6.07;3.20;;;;;;;;;;5016036;28;20204;-70
2024/01/16 14:34:48;;;;;;;3.70;2.87;;;;;;;;;;5016086;28;20208;-67
2024/01/16 14:37:16;;;;;;;6.17;2.93;;;;;;;;;;5006031;28;20205;-66
2024/01/16 14:39:44;;;;;;;5.53;3.00;;;;;;;;;;5006010;28;20303;-67
2024/01/16 14:42:11;;;;;;;8.20;2.90;;;;;;;;;;5010739;28;20201;-66
2024/01/16 14:44:39;;;;;;;7.73;3.20;;;;;;;;;;5016271;28;20201;-67
2024/01/16 14:47:08;;;;;;;5.30;3.10;;;;;;;;;;5019685;28;20204;-67